createdAt,value
2019-05-15T00:01:10.556Z,1.90
2019-05-15T00:06:11.774Z,1.60
2019-05-15T00:11:12.867Z,1.67
2019-05-15T00:16:13.948Z,1.60
2019-05-15T00:21:15.059Z,1.67
2019-05-15T00:26:18.098Z,1.90
2019-05-15T00:31:19.139Z,1.80
2019-05-15T00:36:20.299Z,1.87
2019-05-15T00:41:21.384Z,2.03
2019-05-15T00:46:22.476Z,1.97
2019-05-15T00:51:23.562Z,1.90
2019-05-15T00:56:24.651Z,1.70
2019-05-15T01:01:25.762Z,1.70
2019-05-15T01:06:28.454Z,1.77
2019-05-15T01:11:29.791Z,1.70
2019-05-15T01:16:30.875Z,2.00
2019-05-15T01:21:31.988Z,2.27
2019-05-15T01:26:33.075Z,2.17
2019-05-15T01:31:34.167Z,2.23
2019-05-15T01:36:35.272Z,1.93
2019-05-15T01:41:38.470Z,2.43
2019-05-15T01:46:39.536Z,1.90
2019-05-15T01:51:40.886Z,2.20
2019-05-15T01:56:49.414Z,2.20
2019-05-15T02:01:50.876Z,2.47
2019-05-15T02:06:51.971Z,2.70
2019-05-15T02:11:58.282Z,2.70
2019-05-15T02:16:59.434Z,2.80
2019-05-15T02:22:00.531Z,2.40
2019-05-15T02:27:01.633Z,2.60
2019-05-15T02:32:02.719Z,2.30
2019-05-15T02:37:03.826Z,2.90
2019-05-15T02:42:05.020Z,2.73
2019-05-15T02:47:09.017Z,2.50
2019-05-15T02:52:09.832Z,2.80
2019-05-15T02:57:11.308Z,2.90
2019-05-15T03:02:12.418Z,2.90
2019-05-15T03:07:13.747Z,2.80
2019-05-15T03:12:14.920Z,2.60
2019-05-15T03:17:18.993Z,2.77
2019-05-15T03:22:20.718Z,2.83
2019-05-15T03:27:21.917Z,2.53
2019-05-15T03:32:34.392Z,3.13
2019-05-15T03:37:32.472Z,2.50
2019-05-15T03:42:29.988Z,3.03
2019-05-15T03:47:31.089Z,2.90
2019-05-15T03:52:32.380Z,2.70
2019-05-15T03:57:33.469Z,3.10
2019-05-15T04:02:35.022Z,2.90
2019-05-15T04:07:39.358Z,2.83
2019-05-15T04:12:40.536Z,3.10
2019-05-15T04:17:42.000Z,3.33
2019-05-15T04:22:43.116Z,3.33
2019-05-15T04:27:49.144Z,3.10
2019-05-15T04:32:49.216Z,3.70
2019-05-15T04:37:50.282Z,4.23
2019-05-15T04:42:51.375Z,4.20
2019-05-15T04:47:52.573Z,4.43
2019-05-15T04:52:53.660Z,4.30
2019-05-15T04:57:54.754Z,3.73
2019-05-15T05:02:58.770Z,4.07
2019-05-15T05:07:59.681Z,4.83
2019-05-15T05:13:00.973Z,6.60
2019-05-15T05:18:02.057Z,3.70
2019-05-15T05:23:03.794Z,4.60
2019-05-15T05:28:05.093Z,4.90
2019-05-15T05:33:08.333Z,3.50
2019-05-15T05:38:09.309Z,3.90
2019-05-15T05:43:10.400Z,3.30
2019-05-15T05:48:11.530Z,3.60
2019-05-15T05:53:12.715Z,3.83
2019-05-15T05:58:13.824Z,3.90
2019-05-15T06:03:15.037Z,3.80
2019-05-15T06:08:19.144Z,4.53
2019-05-15T06:13:19.349Z,4.50
2019-05-15T06:18:20.459Z,3.47
2019-05-15T06:23:24.463Z,3.10
2019-05-15T06:28:24.749Z,3.40
2019-05-15T06:33:27.807Z,3.20
2019-05-15T06:38:30.962Z,3.33
2019-05-15T06:43:32.097Z,2.67
2019-05-15T06:48:33.184Z,3.77
2019-05-15T06:53:34.274Z,3.53
2019-05-15T06:58:38.201Z,3.37
2019-05-15T07:03:39.336Z,3.40
2019-05-15T07:08:40.806Z,2.70
2019-05-15T07:13:42.010Z,2.23
2019-05-15T07:18:43.117Z,2.43
2019-05-15T07:23:44.222Z,2.50
2019-05-15T07:28:45.428Z,2.30
2019-05-15T07:33:48.855Z,2.00
2019-05-15T07:38:49.516Z,1.87
2019-05-15T07:43:50.616Z,3.17
2019-05-15T07:48:51.724Z,2.30
2019-05-15T07:53:52.840Z,2.00
2019-05-15T07:58:53.935Z,2.20
2019-05-15T08:03:59.739Z,2.03
2019-05-15T08:08:59.188Z,2.30
2019-05-15T08:14:03.481Z,2.20
2019-05-15T08:19:03.760Z,2.10
2019-05-15T08:24:04.868Z,2.13
2019-05-15T08:29:08.387Z,2.30
2019-05-15T08:34:15.927Z,1.80
2019-05-15T08:39:12.059Z,2.00
2019-05-15T08:44:13.151Z,2.10
2019-05-15T08:49:14.244Z,1.93
2019-05-15T08:54:17.891Z,1.87
2019-05-15T08:59:18.902Z,2.20
2019-05-15T09:04:30.754Z,1.90
2019-05-15T09:09:23.167Z,1.90
2019-05-15T09:14:24.260Z,1.93
2019-05-15T09:19:25.355Z,1.90
2019-05-15T09:24:28.526Z,1.90
2019-05-15T09:29:29.478Z,2.10
2019-05-15T09:34:46.882Z,2.40
2019-05-15T09:39:33.589Z,2.10
2019-05-15T09:44:34.782Z,1.70
2019-05-15T09:49:35.985Z,2.10
2019-05-15T09:54:38.721Z,1.77
2019-05-15T09:59:40.149Z,1.90
2019-05-15T10:04:41.359Z,1.20
2019-05-15T10:09:42.580Z,1.70
2019-05-15T10:14:43.682Z,1.50
2019-05-15T10:19:44.789Z,1.40
2019-05-15T10:24:50.728Z,1.40
2019-05-15T10:29:49.027Z,2.00
2019-05-15T10:34:50.132Z,1.30
2019-05-15T10:39:52.868Z,1.40
2019-05-15T10:44:54.234Z,1.50
2019-05-15T10:49:55.337Z,1.50
2019-05-15T10:54:58.163Z,2.47
2019-05-15T10:59:59.436Z,1.80
2019-05-15T11:05:00.578Z,1.90
2019-05-15T11:10:01.905Z,2.13
2019-05-15T11:15:10.953Z,1.80
2019-05-15T11:20:11.536Z,1.50
2019-05-15T11:25:13.231Z,1.77
2019-05-15T11:30:14.751Z,1.90
2019-05-15T11:35:18.550Z,1.53
2019-05-15T11:40:19.550Z,1.70
2019-05-15T11:45:21.059Z,1.47
2019-05-15T11:50:22.686Z,2.00
2019-05-15T11:55:24.189Z,1.90
2019-05-15T12:00:26.975Z,1.60
2019-05-15T12:05:28.856Z,2.50
2019-05-15T12:10:30.080Z,1.50
2019-05-15T12:15:31.192Z,1.60
2019-05-15T12:20:32.489Z,1.57
2019-05-15T12:25:33.631Z,2.80
2019-05-15T12:30:34.800Z,2.03
2019-05-15T12:35:39.215Z,2.10
2019-05-15T13:00:51.127Z,1.67
2019-05-15T13:05:52.224Z,1.70
2019-05-15T13:10:53.359Z,1.90
2019-05-15T13:15:54.458Z,1.90
2019-05-15T13:20:56.819Z,2.00
2019-05-15T13:25:59.348Z,1.87
2019-05-15T13:31:00.791Z,1.57
2019-05-15T13:36:02.018Z,1.70
2019-05-15T13:41:05.095Z,1.67
2019-05-15T13:46:08.591Z,1.90
2019-05-15T13:51:09.291Z,2.00
2019-05-15T13:56:10.376Z,1.70
2019-05-15T14:01:11.483Z,1.90
2019-05-15T14:06:12.581Z,1.70
2019-05-15T14:11:13.700Z,1.43
2019-05-15T14:16:14.917Z,1.20
2019-05-15T14:21:18.280Z,2.00
2019-05-15T14:26:20.263Z,1.43
2019-05-15T14:31:22.657Z,1.43
2019-05-15T14:36:23.884Z,1.40
2019-05-15T14:41:25.015Z,1.47
2019-05-15T14:46:26.135Z,1.40
2019-05-15T14:51:28.569Z,1.57
2019-05-15T14:56:29.823Z,1.37
2019-05-15T15:01:31.032Z,1.80
2019-05-15T15:06:32.108Z,1.80
2019-05-15T15:11:33.200Z,2.00
2019-05-15T15:16:34.316Z,1.50
2019-05-15T15:21:38.168Z,2.00
2019-05-15T15:26:39.077Z,1.70
2019-05-15T15:31:40.636Z,1.53
2019-05-15T15:36:41.937Z,1.90
2019-05-15T15:41:43.027Z,1.50
2019-05-15T15:46:44.120Z,1.73
2019-05-15T15:51:45.223Z,1.73
2019-05-15T15:56:48.553Z,2.07
2019-05-15T16:01:49.645Z,1.73
2019-05-15T16:06:50.955Z,2.03
2019-05-15T16:11:52.094Z,1.83
2019-05-15T16:16:53.196Z,1.63
2019-05-15T16:21:54.323Z,1.57
2019-05-15T16:26:55.441Z,1.70
2019-05-15T16:31:58.439Z,1.53
2019-05-15T16:37:01.448Z,1.57
2019-05-15T16:42:02.700Z,1.50
2019-05-15T16:47:03.801Z,1.17
2019-05-15T16:52:04.897Z,1.30
2019-05-15T16:57:06.032Z,1.47
2019-05-15T17:02:08.787Z,1.20
2019-05-15T17:07:10.181Z,1.50
2019-05-15T17:12:11.358Z,1.60
2019-05-15T17:17:12.473Z,2.70
2019-05-15T17:22:13.610Z,1.80
2019-05-15T17:27:15.101Z,1.70
2019-05-15T17:32:18.411Z,1.40
2019-05-15T17:37:19.322Z,2.03
2019-05-15T17:42:20.726Z,1.63
2019-05-15T17:47:21.959Z,1.80
2019-05-15T17:52:23.722Z,1.47
2019-05-15T17:57:24.902Z,1.73
2019-05-15T18:02:28.427Z,1.90
2019-05-15T18:07:29.102Z,1.80
2019-05-15T18:12:30.229Z,1.20
2019-05-15T18:17:31.478Z,2.00
2019-05-15T18:22:32.790Z,2.00
2019-05-15T18:27:33.900Z,1.90
2019-05-15T18:32:35.060Z,2.10
2019-05-15T18:37:38.930Z,1.70
2019-05-15T18:42:39.646Z,1.40
2019-05-15T18:47:40.964Z,1.60
2019-05-15T18:52:42.158Z,1.47
2019-05-15T18:57:45.437Z,1.60
2019-05-15T19:02:46.715Z,1.33
2019-05-15T19:07:48.663Z,1.40
2019-05-15T19:12:50.179Z,1.40
2019-05-15T19:17:51.288Z,1.40
2019-05-15T19:22:52.760Z,1.37
2019-05-15T19:27:53.980Z,1.50
2019-05-15T19:32:55.098Z,1.30
2019-05-15T19:37:58.598Z,1.40
2019-05-15T19:43:03.629Z,1.07
2019-05-15T19:48:02.557Z,1.43
2019-05-15T19:53:03.662Z,1.30
2019-05-15T19:58:04.970Z,1.30
2019-05-15T20:03:08.329Z,1.30
2019-05-15T20:08:09.369Z,1.13
2019-05-15T20:13:10.496Z,2.17
2019-05-15T20:18:11.605Z,1.97
2019-05-15T20:23:12.755Z,1.63
2019-05-15T20:28:14.088Z,1.70
2019-05-15T20:33:15.193Z,1.70
2019-05-15T20:38:16.397Z,1.23
2019-05-15T20:43:18.603Z,1.63
2019-05-15T20:48:19.909Z,1.43
2019-05-15T20:53:23.138Z,1.90
2019-05-15T20:58:24.285Z,1.70
2019-05-15T21:03:25.704Z,1.63
2019-05-15T21:08:28.745Z,1.87
2019-05-15T21:13:30.017Z,2.30
2019-05-15T21:18:31.350Z,2.10
2019-05-15T21:23:32.460Z,1.77
2019-05-15T21:28:33.559Z,2.00
2019-05-15T21:33:34.658Z,1.70
2019-05-15T21:38:35.755Z,1.80
2019-05-15T21:43:38.749Z,2.07
2019-05-15T21:48:39.962Z,2.10
2019-05-15T21:53:41.154Z,1.60
2019-05-15T21:58:42.447Z,1.50
2019-05-15T22:03:43.774Z,1.57
2019-05-15T22:08:45.175Z,1.70
2019-05-15T22:13:48.051Z,1.70
2019-05-15T22:18:49.295Z,1.50
2019-05-15T22:23:50.410Z,1.40
2019-05-15T22:28:51.612Z,1.93
2019-05-15T22:33:52.704Z,2.07
2019-05-15T22:38:53.796Z,2.10
2019-05-15T22:43:55.667Z,1.90
2019-05-15T22:48:58.883Z,2.20
2019-05-15T22:53:59.803Z,2.03
2019-05-15T22:59:00.983Z,2.00
2019-05-15T23:04:02.085Z,2.47
2019-05-15T23:09:04.805Z,2.50
2019-05-15T23:14:08.017Z,2.33
2019-05-15T23:19:08.908Z,2.63
2019-05-15T23:24:10.031Z,2.20
2019-05-15T23:29:11.123Z,3.27
2019-05-15T23:34:12.224Z,2.67
2019-05-15T23:39:13.326Z,3.30
2019-05-15T23:44:14.522Z,3.70
2019-05-15T23:49:15.612Z,3.67
2019-05-15T23:54:18.530Z,3.57
2019-05-15T23:59:19.702Z,3.33
